Time;durP1;ratioP1;P1;durP2;ratioP2;P2;SDS_P1;SDS_P2;PMS_P1;PMS_P2;Temp;Humidity;BMP_temperature;BMP_pressure;BME280_temperature;BME280_humidity;BME280_pressure;Samples;Min_cycle;Max_cycle;Signal;HPM_P1;HPM_P2
2022/04/27 00:01:39;;;;;;;5.08;2.47;;;;;;;11.65;66.75;100503.24;1699595;82;21062;-54
2022/04/27 00:04:07;;;;;;;4.35;2.30;;;;;;;11.62;66.80;100510.11;1699849;83;21090;-54
2022/04/27 00:06:34;;;;;;;5.97;2.37;;;;;;;11.58;66.90;100506.03;1699141;82;21158;-54
2022/04/27 00:09:04;;;;;;;5.83;2.45;;;;;;;11.54;66.96;100509.41;1704736;83;22255;-54
2022/04/27 00:11:32;;;;;;;5.70;2.45;;;;;;;11.51;67.16;100514.92;1704646;83;21056;-53
2022/04/27 00:14:03;;;;;;;5.67;2.60;;;;;;;11.51;67.26;100518.87;1708264;83;21539;-53
2022/04/27 00:16:30;;;;;;;5.30;2.20;;;;;;;11.55;67.19;100519.46;1703842;82;21071;-54
2022/04/27 00:18:56;;;;;;;4.83;2.22;;;;;;;11.56;67.14;100521.14;1704560;83;21155;-54
2022/04/27 00:21:23;;;;;;;5.08;2.62;;;;;;;11.57;67.14;100520.20;1701260;83;21079;-54
2022/04/27 00:23:51;;;;;;;5.22;2.30;;;;;;;11.56;67.18;100523.29;1709632;83;21031;-54
2022/04/27 00:26:18;;;;;;;6.22;2.47;;;;;;;11.51;67.09;100523.66;1703899;83;21051;-55
2022/04/27 00:28:45;;;;;;;7.45;2.80;;;;;;;11.46;67.24;100529.78;1701103;83;21067;-54
2022/04/27 00:31:13;;;;;;;4.53;2.10;;;;;;;11.40;67.49;100529.45;1702934;83;21233;-54
2022/04/27 00:33:41;;;;;;;4.58;2.47;;;;;;;11.31;67.66;100531.89;1705769;82;21097;-54
2022/04/27 00:36:08;;;;;;;5.40;2.65;;;;;;;11.30;67.83;100526.75;1701640;83;21427;-54
2022/04/27 00:38:35;;;;;;;5.03;2.58;;;;;;;11.30;67.92;100534.65;1701170;83;21494;-54
2022/04/27 00:41:03;;;;;;;4.67;2.33;;;;;;;11.29;67.99;100538.23;1700360;83;21115;-53
2022/04/27 00:43:40;;;;;;;5.45;2.95;;;;;;;11.28;68.09;100533.91;1703856;82;21657;-53
2022/04/27 00:46:07;;;;;;;5.25;2.37;;;;;;;11.25;68.18;100542.91;1698738;83;21499;-52
2022/04/27 00:48:36;;;;;;;5.95;2.70;;;;;;;11.17;68.28;100543.17;1702970;83;21060;-53
2022/04/27 00:51:05;;;;;;;6.33;2.20;;;;;;;11.08;68.42;100541.63;1705323;83;21047;-54
2022/04/27 00:53:33;;;;;;;6.28;2.98;;;;;;;11.05;68.56;100547.62;1701286;83;21422;-53
2022/04/27 00:56:02;;;;;;;6.92;2.60;;;;;;;11.01;68.76;100556.71;1742202;81;21014;-53
2022/04/27 00:58:29;;;;;;;5.20;2.70;;;;;;;11.00;68.84;100556.38;1747609;80;21156;-53
2022/04/27 01:00:57;;;;;;;5.08;2.33;;;;;;;11.03;68.86;100563.55;1746905;81;21033;-53
2022/04/27 01:03:23;;;;;;;4.50;2.45;;;;;;;11.10;68.86;100571.80;1741801;80;21059;-53
2022/04/27 01:05:51;;;;;;;4.37;2.10;;;;;;;11.14;68.82;100567.46;1704205;82;21074;-53
2022/04/27 01:08:22;;;;;;;5.92;2.62;;;;;;;11.14;68.49;100571.90;1704238;83;21612;-53
2022/04/27 01:10:50;;;;;;;6.53;2.30;;;;;;;11.09;68.31;100574.06;1697850;83;21015;-53
2022/04/27 01:13:19;;;;;;;5.83;3.27;;;;;;;11.03;68.22;100576.71;1706291;83;21107;-53
2022/04/27 01:15:50;;;;;;;4.60;2.20;;;;;;;10.98;68.23;100574.92;1699593;82;21034;-54
2022/04/27 01:18:16;;;;;;;5.85;2.80;;;;;;;10.91;67.95;100582.47;1705053;83;21528;-53
2022/04/27 01:20:44;;;;;;;4.87;1.98;;;;;;;10.86;67.91;100579.81;1687372;83;21631;-53
2022/04/27 01:23:14;;;;;;;4.60;1.98;;;;;;;10.88;67.81;100581.88;1706098;83;21101;-53
2022/04/27 01:25:54;;;;;;;4.50;2.12;;;;;;;10.91;67.67;100580.29;1702516;82;21142;-53
2022/04/27 01:28:25;;;;;;;4.97;2.55;;;;;;;10.93;67.51;100580.55;1701373;83;21035;-53
2022/04/27 01:31:00;;;;;;;5.75;2.60;;;;;;;10.93;67.30;100578.40;1702078;83;21105;-53
2022/04/27 01:33:27;;;;;;;5.03;2.60;;;;;;;10.89;67.38;100580.44;1706475;83;21789;-53
2022/04/27 01:35:54;;;;;;;4.92;2.22;;;;;;;10.90;67.36;100579.95;1703416;83;21483;-53
2022/04/27 01:38:21;;;;;;;4.67;2.30;;;;;;;10.88;67.31;100580.06;1703052;82;21102;-53
2022/04/27 01:40:54;;;;;;;5.78;2.83;;;;;;;10.83;67.34;100580.91;1706330;83;21668;-53
2022/04/27 01:43:24;;;;;;;5.83;2.62;;;;;;;10.82;67.38;100586.28;1682944;83;21117;-53
2022/04/27 01:45:52;;;;;;;4.92;2.40;;;;;;;10.83;67.34;100577.45;1703512;83;21988;-53
2022/04/27 01:48:18;;;;;;;6.75;2.40;;;;;;;10.84;67.34;100582.56;1706486;82;21498;-53
2022/04/27 01:50:45;;;;;;;5.28;2.37;;;;;;;10.83;67.34;100582.22;1707507;83;21047;-53
2022/04/27 01:55:56;;;;;;;5.42;2.40;;;;;;;10.71;67.64;100583.19;1703562;83;21071;-53
2022/04/27 01:58:24;;;;;;;4.85;2.22;;;;;;;10.63;67.87;100589.03;1705930;83;21801;-53
2022/04/27 02:00:53;;;;;;;5.33;2.00;;;;;;;10.54;68.14;100588.41;1704924;83;21019;-53
2022/04/27 02:03:21;;;;;;;5.37;2.30;;;;;;;10.44;68.34;100585.66;1680136;83;21544;-53
2022/04/27 02:05:48;;;;;;;5.10;2.37;;;;;;;10.36;68.48;100578.34;1702387;83;21534;-53
2022/04/27 02:08:17;;;;;;;5.90;2.50;;;;;;;10.36;68.66;100586.72;1707890;83;21096;-53
2022/04/27 02:10:44;;;;;;;5.25;2.50;;;;;;;10.35;68.67;100588.98;1705441;83;21158;-53
2022/04/27 02:13:13;;;;;;;4.90;2.40;;;;;;;10.32;68.79;100588.75;1676876;84;21067;-54
2022/04/27 02:15:41;;;;;;;4.30;1.77;;;;;;;10.28;68.82;100595.63;1701092;83;21051;-53
2022/04/27 02:18:10;;;;;;;4.97;2.42;;;;;;;10.21;68.99;100589.51;1690606;83;21870;-52
2022/04/27 02:20:37;;;;;;;5.10;2.42;;;;;;;10.16;69.15;100592.96;1701397;83;21119;-53
2022/04/27 02:23:03;;;;;;;4.80;2.52;;;;;;;10.11;69.26;100588.52;1697625;83;21152;-53
2022/04/27 02:25:30;;;;;;;6.65;2.25;;;;;;;10.10;69.24;100601.30;1699767;82;21548;-53
2022/04/27 02:27:58;;;;;;;4.78;2.58;;;;;;;10.13;69.24;100595.81;1702055;84;21063;-53
2022/04/27 02:30:26;;;;;;;5.58;2.40;;;;;;;10.16;69.14;100596.08;1700534;84;21133;-53
2022/04/27 02:32:53;;;;;;;5.50;2.50;;;;;;;10.16;69.08;100595.59;1699543;83;21053;-53
2022/04/27 02:35:21;;;;;;;5.37;2.50;;;;;;;10.16;69.20;100598.22;1703411;83;21157;-53
2022/04/27 02:37:49;;;;;;;5.55;2.47;;;;;;;10.18;69.28;100598.94;1699933;82;21079;-53
2022/04/27 02:40:16;;;;;;;5.10;2.52;;;;;;;10.23;69.12;100604.69;1700638;82;21058;-53
2022/04/27 02:42:44;;;;;;;4.72;2.30;;;;;;;10.26;68.98;100605.44;1700076;83;21075;-53
2022/04/27 02:45:12;;;;;;;4.42;2.10;;;;;;;10.28;68.87;100604.35;1697327;84;21053;-53
2022/04/27 02:47:39;;;;;;;5.92;2.50;;;;;;;10.36;68.63;100614.34;1692990;82;21154;-53
2022/04/27 02:52:55;;;;;;;4.65;2.35;;;;;;;10.46;68.34;100607.91;1697666;82;21507;-53
2022/04/27 02:55:33;;;;;;;4.95;2.15;;;;;;;10.51;68.30;100615.80;1695405;83;21003;-54
2022/04/27 02:57:59;;;;;;;4.87;2.47;;;;;;;10.54;68.12;100616.03;1703781;82;21105;-53
2022/04/27 03:00:30;;;;;;;7.25;2.52;;;;;;;10.55;67.93;100615.09;1702354;84;21501;-54
2022/04/27 03:02:58;;;;;;;4.67;2.40;;;;;;;10.56;67.84;100617.60;1700821;83;21051;-54
2022/04/27 03:05:25;;;;;;;4.20;2.08;;;;;;;10.59;67.54;100619.15;1703413;84;21048;-53
2022/04/27 03:07:53;;;;;;;5.83;2.22;;;;;;;10.65;67.38;100623.13;1701165;83;21066;-53
2022/04/27 03:10:20;;;;;;;4.95;2.42;;;;;;;10.69;67.26;100629.81;1669684;84;21071;-53
2022/04/27 03:12:47;;;;;;;5.33;2.60;;;;;;;10.67;67.22;100627.78;1702466;83;21164;-54
2022/04/27 03:15:15;;;;;;;4.90;2.50;;;;;;;10.64;67.30;100631.96;1699629;84;21512;-53
2022/04/27 03:17:43;;;;;;;6.72;2.98;;;;;;;10.63;67.34;100636.39;1698208;82;21118;-53
2022/04/27 03:20:10;;;;;;;5.28;2.20;;;;;;;10.63;67.33;100635.56;1701399;82;21142;-53
2022/04/27 03:22:39;;;;;;;5.30;2.47;;;;;;;10.65;67.32;100642.38;1701607;83;21031;-53
2022/04/27 03:25:08;;;;;;;5.45;2.22;;;;;;;10.62;67.30;100645.23;1699969;84;21166;-54
2022/04/27 03:27:34;;;;;;;6.15;2.60;;;;;;;10.64;67.16;100649.06;1691293;82;21062;-53
2022/04/27 03:30:01;;;;;;;5.62;2.80;;;;;;;10.70;66.99;100641.55;1701020;84;21099;-54
2022/04/27 03:32:28;;;;;;;5.42;2.60;;;;;;;10.76;66.73;100641.57;1697667;82;21027;-53
2022/04/27 03:34:57;;;;;;;6.00;2.65;;;;;;;10.79;66.42;100643.94;1702702;84;21011;-54
2022/04/27 03:37:25;;;;;;;6.00;2.47;;;;;;;10.81;66.29;100642.51;1703959;83;22668;-53
2022/04/27 03:39:52;;;;;;;4.83;2.40;;;;;;;10.80;66.24;100647.44;1699230;83;22154;-54
2022/04/27 03:42:21;;;;;;;4.65;2.02;;;;;;;10.75;66.24;100647.77;1691301;83;21123;-54
2022/04/27 03:44:51;;;;;;;6.60;2.62;;;;;;;10.75;66.15;100649.92;1696884;84;21072;-53
2022/04/27 03:47:19;;;;;;;5.87;3.00;;;;;;;10.77;66.08;100651.95;1697311;83;21070;-53
2022/04/27 03:49:46;;;;;;;4.72;2.10;;;;;;;10.79;66.14;100657.10;1700138;84;21155;-54
2022/04/27 03:52:12;;;;;;;5.58;2.62;;;;;;;10.77;65.98;100661.66;1698291;83;21115;-54
2022/04/27 03:54:40;;;;;;;6.15;2.70;;;;;;;10.72;65.94;100663.80;1697721;84;21032;-53
2022/04/27 03:57:07;;;;;;;6.25;3.05;;;;;;;10.68;66.00;100672.89;1697335;83;21080;-54
2022/04/27 03:59:34;;;;;;;4.42;2.22;;;;;;;10.62;66.12;100672.03;1696128;84;21054;-53
2022/04/27 04:02:03;;;;;;;5.42;2.25;;;;;;;10.56;66.22;100678.13;1695314;83;21219;-53
2022/04/27 04:04:31;;;;;;;7.62;2.70;;;;;;;10.50;66.28;100679.06;1688513;83;21092;-53
2022/04/27 04:06:58;;;;;;;5.20;2.52;;;;;;;10.46;66.37;100677.63;1670147;85;21089;-54
2022/04/27 04:09:27;;;;;;;6.05;2.33;;;;;;;10.50;66.51;100683.83;1737434;80;21576;-53
2022/04/27 04:11:54;;;;;;;5.35;2.65;;;;;;;10.54;66.49;100675.23;1736099;81;21532;-53
2022/04/27 04:14:31;;;;;;;5.50;2.75;;;;;;;10.54;66.55;100682.67;1701904;82;21083;-52
2022/04/27 04:17:04;;;;;;;6.37;2.65;;;;;;;10.57;66.46;100688.16;1737557;80;20985;-53
2022/04/27 04:19:47;;;;;;;6.40;2.55;;;;;;;10.57;66.33;100689.02;1736611;81;21013;-53
2022/04/27 04:22:16;;;;;;;5.75;2.50;;;;;;;10.59;66.28;100687.56;1699180;82;20995;-52
2022/04/27 04:30:30;;;;;;;5.67;2.60;;;;;;;10.61;65.91;100690.94;1702968;82;21047;-53
2022/04/27 04:33:18;;;;;;;5.15;2.55;;;;;;;10.66;65.64;100693.20;1739195;80;21043;-52
2022/04/27 04:35:47;;;;;;;5.58;2.62;;;;;;;10.65;65.56;100696.81;1737330;82;21041;-52
2022/04/27 04:38:14;;;;;;;4.62;1.98;;;;;;;10.69;65.35;100699.55;1730111;80;21099;-52
2022/04/27 04:40:41;;;;;;;5.70;2.30;;;;;;;10.73;65.19;100698.39;1701646;83;21153;-53
2022/04/27 04:43:09;;;;;;;12.75;2.87;;;;;;;10.71;65.00;100703.77;1734797;81;21058;-52
2022/04/27 04:45:39;;;;;;;4.90;2.33;;;;;;;10.70;64.91;100701.25;1737595;80;21067;-53
2022/04/27 04:48:08;;;;;;;5.08;2.47;;;;;;;10.74;64.96;100703.53;1733773;81;21055;-54
2022/04/27 04:50:45;;;;;;;6.47;2.17;;;;;;;10.84;64.57;100703.66;1722282;82;21536;-54
2022/04/27 04:53:32;;;;;;;6.00;2.17;;;;;;;10.94;64.45;100707.75;1726334;80;21946;-52
2022/04/27 04:56:17;;;;;;;4.80;2.20;;;;;;;11.02;63.87;100707.17;1729545;82;21126;-54
2022/04/27 04:58:48;;;;;;;5.22;2.08;;;;;;;11.10;63.61;100717.95;1738638;80;20992;-53
2022/04/27 05:01:22;;;;;;;5.08;2.10;;;;;;;11.14;63.26;100715.44;1737398;80;21095;-53
2022/04/27 05:04:00;;;;;;;4.90;2.10;;;;;;;11.15;63.10;100721.08;1734018;81;20999;-53
2022/04/27 05:06:47;;;;;;;;;;;;;;;11.14;62.60;100718.89;1733399;81;21149;-54
2022/04/27 05:09:22;;;;;;;5.90;2.37;;;;;;;11.15;62.64;100713.17;1692155;82;20205;-53
2022/04/27 05:11:50;;;;;;;6.15;1.82;;;;;;;11.14;62.85;100721.53;1719250;81;21141;-53
2022/04/27 05:14:19;;;;;;;4.42;2.17;;;;;;;11.25;62.34;100725.16;1737557;81;21031;-53
2022/04/27 05:17:05;;;;;;;5.30;2.10;;;;;;;11.39;61.46;100719.64;1733931;80;21003;-54
2022/04/27 05:19:35;;;;;;;5.40;1.92;;;;;;;11.55;60.93;100723.24;1738779;81;21157;-54
2022/04/27 05:22:04;;;;;;;4.85;2.20;;;;;;;11.65;60.42;100725.51;1734277;81;21099;-54
2022/04/27 05:24:34;;;;;;;6.37;1.98;;;;;;;11.74;59.54;100726.56;1735154;81;21024;-54
2022/04/27 05:27:08;;;;;;;5.65;2.10;;;;;;;11.80;59.25;100719.50;1706322;83;21048;-52
2022/04/27 05:32:43;;;;;;;4.20;1.42;;;;;;;11.95;59.13;100738.53;1732381;80;21032;-52
2022/04/27 05:35:20;;;;;;;4.28;1.92;;;;;;;12.01;59.06;100731.95;1707037;82;21322;-54
2022/04/27 05:38:06;;;;;;;4.53;2.00;;;;;;;12.07;58.90;100728.33;1737391;81;21031;-53
2022/04/27 05:40:52;;;;;;;5.47;1.98;;;;;;;12.12;58.86;100736.34;1746017;81;21034;-52
2022/04/27 05:43:26;;;;;;;4.67;2.20;;;;;;;12.17;58.56;100737.67;1721400;81;21086;-53
2022/04/27 05:45:58;;;;;;;4.30;1.87;;;;;;;12.23;58.49;100741.11;1720572;82;21245;-53
2022/04/27 05:48:31;;;;;;;5.87;2.30;;;;;;;12.31;57.05;100737.02;1667670;83;21042;-52
2022/04/27 05:51:06;;;;;;;4.33;1.82;;;;;;;12.38;57.18;100741.66;1704292;83;21064;-52
2022/04/27 05:55:07;;;;;;;4.53;2.08;;;;;;;12.59;56.54;100739.52;1783689;79;22721;-53
2022/04/27 05:57:41;;;;;;;4.15;1.92;;;;;;;12.67;56.60;100741.05;1735741;80;21010;-53
2022/04/27 06:00:20;;;;;;;4.53;1.82;;;;;;;12.79;56.98;100739.19;1732405;80;21257;-53
2022/04/27 06:02:50;;;;;;;4.90;2.40;;;;;;;12.93;56.49;100739.38;1753053;80;20963;-53
2022/04/27 06:05:18;;;;;;;5.35;2.30;;;;;;;13.04;54.76;100735.31;1762641;81;21038;-52
2022/04/27 06:07:46;;;;;;;6.15;2.30;;;;;;;13.14;54.08;100743.30;1713743;81;21010;-53
2022/04/27 06:10:16;;;;;;;5.58;2.10;;;;;;;13.22;54.29;100748.77;1712194;81;20994;-52
2022/04/27 06:12:47;;;;;;;5.83;1.90;;;;;;;13.28;54.28;100744.30;1715811;81;21222;-53
2022/04/27 06:15:29;;;;;;;4.08;1.50;;;;;;;13.37;53.61;100749.30;1660373;83;21055;-53
2022/04/27 06:17:57;;;;;;;5.40;1.95;;;;;;;13.51;52.10;100753.39;1713361;81;21051;-53
2022/04/27 06:20:25;;;;;;;4.10;1.65;;;;;;;13.62;52.40;100755.12;1708130;82;21080;-53
2022/04/27 06:22:56;;;;;;;4.00;1.75;;;;;;;13.75;51.63;100762.30;1697800;83;21117;-52
2022/04/27 06:25:25;;;;;;;5.65;2.15;;;;;;;13.87;51.33;100753.78;1673900;84;21145;-52
2022/04/27 06:28:07;;;;;;;4.00;1.75;;;;;;;13.96;51.66;100754.30;1689719;82;21027;-53
2022/04/27 06:30:35;;;;;;;5.30;1.72;;;;;;;14.09;50.33;100746.13;1702968;83;22236;-53
2022/04/27 06:33:02;;;;;;;3.62;1.60;;;;;;;14.21;50.59;100757.42;1705022;83;21521;-53
2022/04/27 06:35:29;;;;;;;3.90;1.55;;;;;;;14.32;49.89;100755.95;1698628;83;21098;-52
2022/04/27 06:37:58;;;;;;;3.47;1.37;;;;;;;14.40;48.23;100761.39;1696555;83;21163;-52
2022/04/27 06:40:27;;;;;;;4.75;2.22;;;;;;;14.46;48.85;100768.79;1715797;82;21629;-52
2022/04/27 06:42:56;;;;;;;4.08;1.50;;;;;;;14.56;47.42;100767.94;1705977;82;21034;-52
2022/04/27 06:45:42;;;;;;;4.08;1.67;;;;;;;14.60;48.19;100770.70;1638041;86;21092;-53
2022/04/27 06:48:28;;;;;;;3.72;1.52;;;;;;;14.64;47.99;100772.95;1626794;86;21097;-52
2022/04/27 06:51:13;;;;;;;4.05;1.60;;;;;;;14.68;47.93;100774.33;1683837;83;22502;-53
2022/04/27 06:53:58;;;;;;;3.72;1.55;;;;;;;14.73;47.14;100785.00;1686801;83;21072;-52
2022/04/27 06:56:40;;;;;;;4.60;1.40;;;;;;;14.79;46.90;100787.08;1695501;82;21059;-51
2022/04/27 06:59:09;;;;;;;3.83;1.75;;;;;;;14.87;47.14;100788.53;1697812;83;21087;-52
2022/04/27 07:01:37;;;;;;;4.30;1.82;;;;;;;14.95;47.50;100792.64;1700677;84;21108;-53
2022/04/27 07:04:09;;;;;;;4.08;1.65;;;;;;;15.07;46.88;100788.52;1696950;82;21090;-52
2022/04/27 07:06:36;;;;;;;6.20;2.15;;;;;;;15.14;46.68;100793.59;1704168;82;21544;-53
2022/04/27 07:09:03;;;;;;;3.95;1.80;;;;;;;15.11;44.61;100785.42;1687304;83;21048;-53
2022/04/27 07:11:31;;;;;;;5.37;1.77;;;;;;;15.13;45.39;100787.93;1689207;82;21149;-52
2022/04/27 07:13:59;;;;;;;4.25;1.77;;;;;;;15.11;45.86;100788.57;1703788;83;21015;-52
2022/04/27 07:16:26;;;;;;;4.80;1.70;;;;;;;15.11;45.40;100799.17;1707327;82;21160;-52
2022/04/27 07:18:53;;;;;;;3.60;1.47;;;;;;;15.11;44.66;100795.20;1705185;82;21075;-52
2022/04/27 07:21:20;;;;;;;4.55;1.80;;;;;;;15.12;44.54;100804.83;1708786;83;21047;-53
2022/04/27 07:23:49;;;;;;;4.37;1.60;;;;;;;15.07;43.52;100803.92;1695105;83;21081;-53
2022/04/27 07:26:17;;;;;;;5.47;2.08;;;;;;;15.05;44.64;100800.59;1704877;83;22432;-52
2022/04/27 07:28:45;;;;;;;3.98;1.67;;;;;;;15.07;44.83;100808.40;1692496;83;21063;-52
2022/04/27 07:31:12;;;;;;;4.62;2.02;;;;;;;15.09;45.16;100813.89;1704740;83;21099;-53
2022/04/27 07:33:38;;;;;;;5.83;1.98;;;;;;;15.15;45.77;100816.48;1698934;82;21031;-52
2022/04/27 07:36:06;;;;;;;4.97;2.35;;;;;;;15.21;45.91;100802.63;1705703;82;21059;-53
2022/04/27 07:38:33;;;;;;;4.40;1.92;;;;;;;15.27;45.82;100806.55;1702731;83;21127;-53
2022/04/27 07:40:59;;;;;;;4.70;1.82;;;;;;;15.28;45.79;100805.09;1706135;83;21651;-53
2022/04/27 07:43:26;;;;;;;3.80;1.65;;;;;;;15.30;44.91;100808.42;1703120;82;21035;-52
2022/04/27 07:45:52;;;;;;;4.42;1.57;;;;;;;15.25;44.17;100813.31;1703803;83;21030;-52
2022/04/27 07:48:19;;;;;;;4.67;2.00;;;;;;;15.21;44.92;100807.47;1701030;82;21036;-52
2022/04/27 07:50:46;;;;;;;4.72;1.82;;;;;;;15.21;45.05;100806.61;1705923;82;21114;-52
2022/04/27 07:53:13;;;;;;;7.35;1.87;;;;;;;15.21;45.47;100808.80;1703221;83;21556;-53
2022/04/27 07:55:40;;;;;;;4.00;1.85;;;;;;;15.22;45.45;100809.63;1683960;83;21051;-53
2022/04/27 07:58:07;;;;;;;3.80;1.70;;;;;;;15.24;45.88;100822.23;1678340;84;21490;-53
2022/04/27 08:00:34;;;;;;;3.62;1.42;;;;;;;15.30;45.94;100819.50;1687887;84;21025;-53
2022/04/27 08:03:01;;;;;;;4.85;2.15;;;;;;;15.36;46.43;100818.44;1682111;84;21047;-53
2022/04/27 08:05:29;;;;;;;5.87;2.70;;;;;;;15.46;46.44;100816.27;1684672;84;21032;-53
2022/04/27 08:07:57;;;;;;;4.28;2.00;;;;;;;15.55;46.10;100824.66;1694560;82;21039;-53
2022/04/27 08:10:24;;;;;;;6.53;1.90;;;;;;;15.58;46.19;100822.58;1700650;84;21046;-53
2022/04/27 08:12:51;;;;;;;5.40;1.82;;;;;;;15.65;45.57;100825.49;1739423;81;21031;-52
2022/04/27 08:15:20;;;;;;;4.55;2.27;;;;;;;15.69;45.26;100826.03;1739266;80;20991;-53
2022/04/27 08:18:02;;;;;;;5.22;2.40;;;;;;;15.75;45.00;100833.39;1733339;82;21237;-52
2022/04/27 08:23:17;;;;;;;4.67;2.30;;;;;;;15.79;45.55;100833.50;1733648;81;21111;-54
2022/04/27 08:25:45;;;;;;;5.33;2.80;;;;;;;15.84;44.99;100841.03;1739794;81;21493;-53
2022/04/27 08:28:12;;;;;;;4.47;1.92;;;;;;;15.85;44.51;100838.20;1723357;81;22383;-52
2022/04/27 08:30:48;;;;;;;4.33;1.98;;;;;;;15.85;44.83;100846.66;1700429;82;21055;-52
2022/04/27 08:33:16;;;;;;;4.80;2.00;;;;;;;15.85;44.83;100843.50;1701497;82;21102;-52
2022/04/27 08:35:43;;;;;;;5.00;2.05;;;;;;;15.84;44.44;100837.88;1699962;83;21064;-52
2022/04/27 08:38:10;;;;;;;5.42;1.85;;;;;;;15.84;44.40;100837.88;1699352;82;21075;-52
2022/04/27 08:40:41;;;;;;;4.55;2.08;;;;;;;15.86;43.83;100841.20;1706675;83;21053;-52
2022/04/27 08:43:09;;;;;;;4.55;2.05;;;;;;;15.87;42.88;100848.20;1701950;83;21230;-52
2022/04/27 08:45:42;;;;;;;5.33;1.95;;;;;;;15.90;42.93;100839.95;1702221;83;21028;-52
2022/04/27 08:48:12;;;;;;;4.58;2.02;;;;;;;15.95;42.15;100849.63;1698879;83;21055;-53
2022/04/27 08:50:41;;;;;;;4.35;1.90;;;;;;;15.98;42.39;100844.01;1697784;84;21111;-53
2022/04/27 08:53:07;;;;;;;4.20;1.75;;;;;;;16.07;42.69;100846.30;1701230;83;21121;-53
2022/04/27 08:55:39;;;;;;;3.77;1.72;;;;;;;16.12;41.94;100848.02;1707877;83;21120;-53
2022/04/27 08:58:12;;;;;;;4.95;2.30;;;;;;;16.15;42.03;100842.41;1703488;82;21090;-53
2022/04/27 09:00:39;;;;;;;4.53;1.67;;;;;;;16.20;41.65;100847.25;1712866;83;21106;-53
2022/04/27 09:03:36;;;;;;;4.60;1.90;;;;;;;16.16;40.93;100847.22;1710042;83;21086;-53
2022/04/27 09:06:08;;;;;;;;;;;;;;;16.04;40.80;100846.59;1710009;83;21106;-52
2022/04/27 09:08:43;;;;;;;4.15;1.72;;;;;;;15.93;41.18;100848.09;1697484;83;21156;-53
2022/04/27 09:11:25;;;;;;;7.55;2.40;;;;;;;15.82;41.53;100849.59;1705016;82;21086;-52
2022/04/27 09:14:06;;;;;;;4.10;2.02;;;;;;;15.81;40.51;100849.27;1701748;83;21046;-53
2022/04/27 09:22:27;;;;;;;4.72;2.05;;;;;;;15.97;41.17;100849.48;1710406;82;21218;-51
2022/04/27 09:24:57;;;;;;;3.25;1.50;;;;;;;16.07;39.71;100835.67;1716648;82;21026;-51
2022/04/27 09:27:26;;;;;;;4.28;1.57;;;;;;;16.07;39.03;100846.77;1717227;83;21050;-53
2022/04/27 09:30:14;;;;;;;5.67;2.17;;;;;;;16.04;39.17;100844.41;1718213;82;21003;-52
2022/04/27 09:32:51;;;;;;;4.90;1.90;;;;;;;16.07;38.73;100844.11;1710391;82;21117;-51
2022/04/27 09:35:37;;;;;;;3.95;1.55;;;;;;;16.17;38.93;100843.56;1716222;82;21219;-52
2022/04/27 09:38:15;;;;;;;4.83;1.85;;;;;;;16.22;36.19;100843.13;1710565;82;21125;-52
2022/04/27 09:40:48;;;;;;;4.92;1.90;;;;;;;16.29;38.88;100841.54;1715608;82;21097;-53
2022/04/27 09:43:15;;;;;;;4.60;2.08;;;;;;;16.38;40.18;100842.48;1711677;82;20995;-52
2022/04/27 09:45:44;;;;;;;4.50;1.92;;;;;;;16.42;40.43;100847.33;1715301;82;22204;-52
2022/04/27 09:48:18;;;;;;;6.50;2.30;;;;;;;16.45;39.93;100845.70;1713904;82;21791;-52
2022/04/27 09:50:55;;;;;;;4.55;1.87;;;;;;;16.45;39.62;100843.55;1718681;82;21760;-52
2022/04/27 09:53:23;;;;;;;4.40;1.87;;;;;;;16.38;39.00;100843.31;1709376;82;21010;-53
2022/04/27 09:55:54;;;;;;;4.45;1.70;;;;;;;16.32;39.01;100846.56;1707958;83;21068;-53
2022/04/27 09:58:21;;;;;;;4.20;1.70;;;;;;;16.25;39.25;100847.64;1747184;80;21047;-53
2022/04/27 10:00:50;;;;;;;4.20;1.40;;;;;;;16.21;38.51;100846.28;1749596;82;22048;-52
2022/04/27 10:03:21;;;;;;;4.15;1.60;;;;;;;16.20;38.44;100847.25;1748144;81;21493;-52
2022/04/27 10:05:49;;;;;;;3.90;1.60;;;;;;;16.21;38.25;100850.27;1742855;82;21561;-53
2022/04/27 10:08:15;;;;;;;4.33;1.62;;;;;;;16.26;39.04;100848.50;1742547;81;21034;-53
2022/04/27 10:10:45;;;;;;;5.30;1.80;;;;;;;16.38;38.33;100841.98;1749547;82;21443;-53
2022/04/27 10:13:15;;;;;;;4.95;2.20;;;;;;;16.51;37.13;100838.98;1743923;81;20999;-53
2022/04/27 10:15:44;;;;;;;4.42;1.60;;;;;;;16.59;37.36;100835.05;1747852;82;21073;-53
2022/04/27 10:18:18;;;;;;;3.87;1.30;;;;;;;16.62;37.19;100837.91;1744337;80;21087;-53
2022/04/27 10:20:44;;;;;;;3.77;1.37;;;;;;;16.59;35.50;100837.70;1740988;81;21102;-54
2022/04/27 10:23:27;;;;;;;3.45;1.32;;;;;;;16.56;34.77;100837.17;1745086;80;21092;-54
2022/04/27 10:26:08;;;;;;;4.17;1.50;;;;;;;16.58;35.01;100849.34;1737435;81;21469;-52
2022/04/27 10:28:44;;;;;;;4.58;1.72;;;;;;;16.68;35.49;100846.11;1736778;81;21767;-52
2022/04/27 10:31:12;;;;;;;4.17;1.67;;;;;;;16.83;34.71;100845.59;1739495;80;21017;-53
2022/04/27 10:33:53;;;;;;;3.77;1.60;;;;;;;16.96;36.11;100846.55;1735933;81;21631;-52
2022/04/27 10:36:32;;;;;;;5.17;1.75;;;;;;;17.05;35.85;100856.28;1682290;83;21082;-53
2022/04/27 10:39:28;;;;;;;5.42;2.12;;;;;;;17.06;35.92;100842.84;1735660;81;21584;-53
2022/04/27 10:42:05;;;;;;;3.33;1.27;;;;;;;17.04;36.08;100854.59;1745527;82;21002;-53
2022/04/27 10:44:55;;;;;;;5.15;1.90;;;;;;;17.00;36.42;100857.23;1745055;80;21814;-52
2022/04/27 10:47:23;;;;;;;3.60;1.20;;;;;;;16.99;35.86;100851.06;1746904;82;21035;-52
2022/04/27 10:50:21;;;;;;;3.87;1.60;;;;;;;16.97;35.96;100857.53;1744687;80;21043;-53
2022/04/27 10:52:55;;;;;;;6.80;1.67;;;;;;;16.90;36.21;100856.81;1742978;81;21071;-52
2022/04/27 10:55:42;;;;;;;2.90;1.32;;;;;;;16.87;36.78;100851.80;1748382;80;21038;-53
2022/04/27 10:58:32;;;;;;;5.45;1.80;;;;;;;16.85;36.52;100854.28;1751524;80;21056;-53
2022/04/27 11:01:11;;;;;;;4.15;1.55;;;;;;;16.83;36.40;100859.71;1753005;81;21304;-52
2022/04/27 11:03:39;;;;;;;3.60;1.30;;;;;;;16.81;36.23;100858.17;1712978;82;21063;-52
2022/04/27 11:06:09;;;;;;;4.95;1.72;;;;;;;16.83;35.75;100861.55;1714786;82;21806;-52
2022/04/27 11:08:50;;;;;;;3.70;1.70;;;;;;;16.86;34.62;100863.91;1714045;82;21057;-52
2022/04/27 11:11:17;;;;;;;3.92;1.30;;;;;;;16.90;35.00;100863.45;1717257;82;21066;-52
2022/04/27 11:13:44;;;;;;;4.45;1.70;;;;;;;16.96;33.22;100859.84;1717491;83;21025;-52
2022/04/27 11:16:13;;;;;;;3.92;1.32;;;;;;;17.00;33.29;100863.38;1715313;82;21061;-52
2022/04/27 11:18:52;;;;;;;5.17;1.35;;;;;;;17.05;32.97;100865.59;1714306;82;21030;-52
2022/04/27 11:21:20;;;;;;;3.67;1.30;;;;;;;17.07;33.03;100864.42;1711663;83;21054;-52
2022/04/27 11:23:46;;;;;;;4.12;1.47;;;;;;;17.13;33.37;100866.98;1713340;82;21050;-52
2022/04/27 11:26:14;;;;;;;3.22;1.50;;;;;;;17.22;33.08;100866.05;1718652;83;21101;-52
2022/04/27 11:28:42;;;;;;;4.55;1.47;;;;;;;17.32;32.85;100856.65;1716523;82;21680;-52
2022/04/27 11:31:10;;;;;;;4.05;1.30;;;;;;;17.42;33.17;100852.56;1690281;84;21117;-53
2022/04/27 11:33:40;;;;;;;3.58;1.40;;;;;;;17.52;32.45;100850.63;1698025;82;21549;-53
2022/04/27 11:36:08;;;;;;;3.85;1.47;;;;;;;17.58;31.56;100848.66;1692956;84;21185;-53
2022/04/27 11:38:37;;;;;;;3.00;1.20;;;;;;;17.59;31.17;100847.67;1665252;84;21049;-53
2022/04/27 11:41:07;;;;;;;3.50;1.55;;;;;;;17.58;32.25;100849.16;1694338;84;21752;-53
2022/04/27 11:43:35;;;;;;;4.90;1.52;;;;;;;17.62;32.35;100843.87;1693171;82;21130;-53
2022/04/27 11:46:02;;;;;;;4.00;1.42;;;;;;;17.71;32.52;100848.74;1696400;82;21043;-52
2022/04/27 11:48:30;;;;;;;4.87;1.27;;;;;;;17.86;31.74;100852.98;1693331;82;21117;-52
2022/04/27 11:50:59;;;;;;;4.10;1.30;;;;;;;18.01;30.53;100850.09;1692333;82;21040;-53
2022/04/27 11:53:26;;;;;;;4.37;1.37;;;;;;;18.18;30.48;100846.98;1693026;82;21572;-53
2022/04/27 11:55:54;;;;;;;4.00;1.45;;;;;;;18.38;30.28;100840.89;1685241;84;21021;-53
2022/04/27 11:58:27;;;;;;;3.52;1.40;;;;;;;18.56;30.02;100839.44;1699698;82;21456;-52
2022/04/27 12:00:57;;;;;;;3.72;1.22;;;;;;;18.70;29.96;100837.44;1737345;81;21101;-52
2022/04/27 12:03:25;;;;;;;2.12;0.80;;;;;;;18.82;28.25;100839.79;1739012;80;21664;-53
2022/04/27 12:05:53;;;;;;;3.08;0.93;;;;;;;18.97;29.04;100828.82;1703012;82;21015;-53
2022/04/27 12:08:22;;;;;;;4.70;1.30;;;;;;;19.18;28.33;100830.98;1732642;82;21155;-52